Walker, IA (52352)

12:41 PM CST on November 27, 2014 (GMT -0600)
Southern Urbana | Change Station
CLOSE
Current Station
Personal Weather Station
Location: Center Point, IA
Elevation: 899 ft
Nearby Weather Stations

Elev 899 ft 42.22 °N, 91.87 °W | Updated 59 seconds ago

Clear
Clear
11.5 °F
Feels Like -4 °F
N
13.0
Wind Variable Wind from WNW
Gusts 16.0 mph

Today
High -- | Low -- °F
--% Chance of Precip.
Yesterday
High -- | Low -- °F
Precip. -- in
7:11 AM 4:37 PM
Waxing Crescent, 31% visible
Pressure 30.47 in
Visibility 10.0 miles
Clouds Clear
Windchill -4 °F
Dew Point 5 °F
Humidity 74%
Rainfall 0.00 in
Snow Depth Not available.
UV 2 out of 12
Pollen .10 out of 12
Air Quality Not available.
Flu Activity Not available.
METAR KVTI 271835Z AUTO 32006KT 10SM CLR M09/M16 A3047 RMK AO2 T10931157

More Conditions Fewer Conditions

Pressure 30.47 in
Visibility 10.0 miles
Clouds Clear
Windchill -4 °F
Dew Point 5 °F
Humidity 74%
Rainfall 0.00 in
Snow Depth Not available.
UV 2 out of 12
Pollen .10 out of 12
Air Quality Not available.
Flu Activity Not available.
METAR KVTI 271835Z AUTO 32006KT 10SM CLR M09/M16 A3047 RMK AO2 T10931157

More Conditions Fewer Conditions

10-Day Weather Forecast

Almanac

Astronomy

Nov. 27, 2014 Rise Set
Actual Time
Civil Twilight
Nautical Twilight
Astronomical Twilight
Moon
Length of Visible Light
Length of Day
Tomorrow will be .
, % of the Moon is Illuminated

Today's Extremes

State Highs State Lows

Community

WunderPhotos

Upload Photos

1,774,086 photos uploaded!

WunderBlogs® & News

Nearby

Air Quality

  Air Quality AQ Index Pollutant
Not available.

Snow Depth

Station Depth Elevation

Earthquake Activity

City Distance Mag. Time & Date
Minimum magnitude displayed is 2.5.

Coastal Water Temperatures

Place Temperature

Nearby Weather Stations